sensor_id;sensor_type;location;lat;lon;timestamp;temperature;humidity
24091;DHT22;12272;52.426;17.100;2022-10-31T00:02:39;12.80;99.90
24091;DHT22;12272;52.426;17.100;2022-10-31T00:07:42;12.70;99.90
24091;DHT22;12272;52.426;17.100;2022-10-31T00:12:44;12.70;99.90
24091;DHT22;12272;52.426;17.100;2022-10-31T00:17:47;13.30;99.90
24091;DHT22;12272;52.426;17.100;2022-10-31T00:22:49;13.00;99.90
24091;DHT22;12272;52.426;17.100;2022-10-31T00:27:52;13.30;99.90
24091;DHT22;12272;52.426;17.100;2022-10-31T00:32:55;13.50;99.90
24091;DHT22;12272;52.426;17.100;2022-10-31T00:37:58;13.40;99.90
24091;DHT22;12272;52.426;17.100;2022-10-31T00:43:00;13.10;99.90
24091;DHT22;12272;52.426;17.100;2022-10-31T00:48:04;13.40;99.90
24091;DHT22;12272;52.426;17.100;2022-10-31T00:53:07;13.50;99.90
24091;DHT22;12272;52.426;17.100;2022-10-31T00:58:10;13.30;99.90
24091;DHT22;12272;52.426;17.100;2022-10-31T01:03:13;13.20;99.90
24091;DHT22;12272;52.426;17.100;2022-10-31T01:08:16;13.00;99.90
24091;DHT22;12272;52.426;17.100;2022-10-31T01:13:18;13.40;99.90
24091;DHT22;12272;52.426;17.100;2022-10-31T01:18:24;13.40;99.90
24091;DHT22;12272;52.426;17.100;2022-10-31T01:23:27;13.40;99.90
24091;DHT22;12272;52.426;17.100;2022-10-31T01:28:30;13.60;99.90
24091;DHT22;12272;52.426;17.100;2022-10-31T01:33:34;13.40;99.90
24091;DHT22;12272;52.426;17.100;2022-10-31T01:38:36;13.20;99.90
24091;DHT22;12272;52.426;17.100;2022-10-31T01:48:53;12.80;99.90
24091;DHT22;12272;52.426;17.100;2022-10-31T01:53:59;13.00;99.90
24091;DHT22;12272;52.426;17.100;2022-10-31T01:59:04;12.90;99.90
24091;DHT22;12272;52.426;17.100;2022-10-31T02:04:10;12.10;99.90
24091;DHT22;12272;52.426;17.100;2022-10-31T02:09:14;12.40;99.90
24091;DHT22;12272;52.426;17.100;2022-10-31T02:14:17;12.50;99.90
24091;DHT22;12272;52.426;17.100;2022-10-31T02:19:40;12.30;99.90
24091;DHT22;12272;52.426;17.100;2022-10-31T02:30:24;13.00;99.90
24091;DHT22;12272;52.426;17.100;2022-10-31T02:41:09;12.70;99.90
24091;DHT22;12272;52.426;17.100;2022-10-31T02:46:28;12.00;99.90
24091;DHT22;12272;52.426;17.100;2022-10-31T02:51:35;13.10;99.90
24091;DHT22;12272;52.426;17.100;2022-10-31T02:56:38;12.90;99.90
24091;DHT22;12272;52.426;17.100;2022-10-31T03:07:28;12.50;99.90
24091;DHT22;12272;52.426;17.100;2022-10-31T03:12:40;12.50;99.90
24091;DHT22;12272;52.426;17.100;2022-10-31T03:18:03;12.40;99.90
24091;DHT22;12272;52.426;17.100;2022-10-31T03:23:10;12.50;99.90
24091;DHT22;12272;52.426;17.100;2022-10-31T03:28:17;12.60;99.90
24091;DHT22;12272;52.426;17.100;2022-10-31T03:33:28;12.20;99.90
24091;DHT22;12272;52.426;17.100;2022-10-31T03:38:33;12.50;99.90
24091;DHT22;12272;52.426;17.100;2022-10-31T03:43:42;12.30;99.90
24091;DHT22;12272;52.426;17.100;2022-10-31T03:48:47;12.20;99.90
24091;DHT22;12272;52.426;17.100;2022-10-31T04:04:04;13.90;99.90
24091;DHT22;12272;52.426;17.100;2022-10-31T04:09:09;13.40;99.90
24091;DHT22;12272;52.426;17.100;2022-10-31T04:14:12;13.50;99.90
24091;DHT22;12272;52.426;17.100;2022-10-31T04:19:15;13.40;99.90
24091;DHT22;12272;52.426;17.100;2022-10-31T04:24:17;13.30;99.90
24091;DHT22;12272;52.426;17.100;2022-10-31T04:29:20;12.70;99.90
24091;DHT22;12272;52.426;17.100;2022-10-31T04:34:22;12.70;99.90
24091;DHT22;12272;52.426;17.100;2022-10-31T04:39:25;12.10;99.90
24091;DHT22;12272;52.426;17.100;2022-10-31T04:44:54;11.00;99.90
24091;DHT22;12272;52.426;17.100;2022-10-31T04:49:57;11.80;99.90
24091;DHT22;12272;52.426;17.100;2022-10-31T04:55:00;12.10;99.90
24091;DHT22;12272;52.426;17.100;2022-10-31T05:00:21;11.90;99.90
24091;DHT22;12272;52.426;17.100;2022-10-31T05:05:28;12.00;99.90
24091;DHT22;12272;52.426;17.100;2022-10-31T05:10:31;11.80;99.90
24091;DHT22;12272;52.426;17.100;2022-10-31T05:15:35;12.70;99.90
24091;DHT22;12272;52.426;17.100;2022-10-31T05:21:01;12.60;99.90
24091;DHT22;12272;52.426;17.100;2022-10-31T05:26:09;12.70;99.90
24091;DHT22;12272;52.426;17.100;2022-10-31T05:31:12;12.50;99.90
24091;DHT22;12272;52.426;17.100;2022-10-31T05:36:16;12.20;99.90
24091;DHT22;12272;52.426;17.100;2022-10-31T05:41:37;12.10;99.90
24091;DHT22;12272;52.426;17.100;2022-10-31T05:46:47;11.40;99.90
24091;DHT22;12272;52.426;17.100;2022-10-31T05:52:10;11.20;99.90
24091;DHT22;12272;52.426;17.100;2022-10-31T05:57:33;12.20;99.90
24091;DHT22;12272;52.426;17.100;2022-10-31T06:02:37;12.50;99.90
24091;DHT22;12272;52.426;17.100;2022-10-31T06:07:55;12.40;99.90
24091;DHT22;12272;52.426;17.100;2022-10-31T06:12:58;12.10;99.90
24091;DHT22;12272;52.426;17.100;2022-10-31T06:18:10;11.90;99.90
24091;DHT22;12272;52.426;17.100;2022-10-31T06:23:21;12.70;99.90
24091;DHT22;12272;52.426;17.100;2022-10-31T06:28:30;12.80;99.90
24091;DHT22;12272;52.426;17.100;2022-10-31T06:33:45;13.80;99.90
24091;DHT22;12272;52.426;17.100;2022-10-31T06:38:48;13.60;99.90
24091;DHT22;12272;52.426;17.100;2022-10-31T06:43:54;13.40;99.90
24091;DHT22;12272;52.426;17.100;2022-10-31T06:49:15;12.90;99.90
24091;DHT22;12272;52.426;17.100;2022-10-31T06:54:25;12.60;99.90
24091;DHT22;12272;52.426;17.100;2022-10-31T06:59:29;12.80;99.90
24091;DHT22;12272;52.426;17.100;2022-10-31T07:04:50;12.50;99.90
24091;DHT22;12272;52.426;17.100;2022-10-31T07:09:53;12.90;99.90
24091;DHT22;12272;52.426;17.100;2022-10-31T07:15:10;13.10;99.90
24091;DHT22;12272;52.426;17.100;2022-10-31T07:20:13;13.30;99.90
24091;DHT22;12272;52.426;17.100;2022-10-31T07:25:16;13.70;99.90
24091;DHT22;12272;52.426;17.100;2022-10-31T07:30:37;14.60;99.90
24091;DHT22;12272;52.426;17.100;2022-10-31T07:35:40;14.40;99.90
24091;DHT22;12272;52.426;17.100;2022-10-31T07:40:50;14.30;99.90
24091;DHT22;12272;52.426;17.100;2022-10-31T07:45:54;15.00;99.90
24091;DHT22;12272;52.426;17.100;2022-10-31T07:51:15;14.40;99.90
24091;DHT22;12272;52.426;17.100;2022-10-31T07:56:48;14.60;99.90
24091;DHT22;12272;52.426;17.100;2022-10-31T08:01:51;14.20;99.90
24091;DHT22;12272;52.426;17.100;2022-10-31T08:07:19;10.70;99.90
24091;DHT22;12272;52.426;17.100;2022-10-31T08:12:29;10.90;99.90
24091;DHT22;12272;52.426;17.100;2022-10-31T08:17:35;10.20;99.90
24091;DHT22;12272;52.426;17.100;2022-10-31T08:22:39;13.80;99.90
24091;DHT22;12272;52.426;17.100;2022-10-31T08:27:50;14.60;99.90
24091;DHT22;12272;52.426;17.100;2022-10-31T08:38:21;14.50;99.90
24091;DHT22;12272;52.426;17.100;2022-10-31T08:43:24;15.10;99.90
24091;DHT22;12272;52.426;17.100;2022-10-31T08:48:28;15.30;99.90
24091;DHT22;12272;52.426;17.100;2022-10-31T08:53:31;15.50;99.90
24091;DHT22;12272;52.426;17.100;2022-10-31T08:58:57;15.90;99.90
24091;DHT22;12272;52.426;17.100;2022-10-31T09:04:12;16.60;99.90
24091;DHT22;12272;52.426;17.100;2022-10-31T09:09:15;17.20;99.90
24091;DHT22;12272;52.426;17.100;2022-10-31T09:14:17;17.90;99.90
24091;DHT22;12272;52.426;17.100;2022-10-31T09:19:49;18.10;99.90
24091;DHT22;12272;52.426;17.100;2022-10-31T09:24:51;18.30;99.90
24091;DHT22;12272;52.426;17.100;2022-10-31T09:29:54;18.20;99.90
24091;DHT22;12272;52.426;17.100;2022-10-31T09:34:57;18.00;99.90
24091;DHT22;12272;52.426;17.100;2022-10-31T09:39:59;17.90;99.90
24091;DHT22;12272;52.426;17.100;2022-10-31T09:45:20;18.20;99.90
24091;DHT22;12272;52.426;17.100;2022-10-31T09:50:49;17.90;99.90
24091;DHT22;12272;52.426;17.100;2022-10-31T09:56:18;18.20;99.90
24091;DHT22;12272;52.426;17.100;2022-10-31T10:01:47;17.90;99.90
24091;DHT22;12272;52.426;17.100;2022-10-31T10:06:52;17.90;99.90
24091;DHT22;12272;52.426;17.100;2022-10-31T10:18:18;17.90;99.90
24091;DHT22;12272;52.426;17.100;2022-10-31T10:28:37;15.10;99.90
24091;DHT22;12272;52.426;17.100;2022-10-31T10:34:07;14.50;99.90
24091;DHT22;12272;52.426;17.100;2022-10-31T10:39:22;16.60;99.90
24091;DHT22;12272;52.426;17.100;2022-10-31T10:44:25;17.30;99.90
24091;DHT22;12272;52.426;17.100;2022-10-31T10:49:52;17.60;99.90
24091;DHT22;12272;52.426;17.100;2022-10-31T11:00:27;18.10;99.90
24091;DHT22;12272;52.426;17.100;2022-10-31T11:11:02;17.60;99.90
24091;DHT22;12272;52.426;17.100;2022-10-31T11:16:14;17.10;99.90
24091;DHT22;12272;52.426;17.100;2022-10-31T11:21:35;17.70;99.90
24091;DHT22;12272;52.426;17.100;2022-10-31T11:26:38;17.50;99.90
24091;DHT22;12272;52.426;17.100;2022-10-31T11:31:42;17.10;99.90
24091;DHT22;12272;52.426;17.100;2022-10-31T11:36:45;17.20;99.90
24091;DHT22;12272;52.426;17.100;2022-10-31T11:41:49;17.20;99.90
24091;DHT22;12272;52.426;17.100;2022-10-31T11:46:55;17.40;99.90
24091;DHT22;12272;52.426;17.100;2022-10-31T11:52:07;17.30;99.90
24091;DHT22;12272;52.426;17.100;2022-10-31T11:57:42;17.30;99.90
24091;DHT22;12272;52.426;17.100;2022-10-31T12:02:45;17.60;99.90
24091;DHT22;12272;52.426;17.100;2022-10-31T12:07:48;17.30;99.90
24091;DHT22;12272;52.426;17.100;2022-10-31T12:13:30;17.70;99.90
24091;DHT22;12272;52.426;17.100;2022-10-31T12:24:03;18.00;99.90
24091;DHT22;12272;52.426;17.100;2022-10-31T13:01:07;18.00;99.90
24091;DHT22;12272;52.426;17.100;2022-10-31T13:06:16;18.10;99.90
24091;DHT22;12272;52.426;17.100;2022-10-31T13:16:40;18.10;99.90
24091;DHT22;12272;52.426;17.100;2022-10-31T13:27:15;18.20;99.90
24091;DHT22;12272;52.426;17.100;2022-10-31T13:32:20;18.30;99.90
24091;DHT22;12272;52.426;17.100;2022-10-31T13:37:46;18.30;99.90
24091;DHT22;12272;52.426;17.100;2022-10-31T13:43:06;18.20;99.90
24091;DHT22;12272;52.426;17.100;2022-10-31T13:58:26;17.60;99.90
24091;DHT22;12272;52.426;17.100;2022-10-31T14:03:30;17.30;99.90
24091;DHT22;12272;52.426;17.100;2022-10-31T14:08:55;17.30;99.90
24091;DHT22;12272;52.426;17.100;2022-10-31T14:13:58;17.10;99.90
24091;DHT22;12272;52.426;17.100;2022-10-31T14:19:06;17.00;99.90
24091;DHT22;12272;52.426;17.100;2022-10-31T14:29:32;17.60;99.90
24091;DHT22;12272;52.426;17.100;2022-10-31T14:34:39;17.10;99.90
24091;DHT22;12272;52.426;17.100;2022-10-31T14:40:02;18.00;99.90
24091;DHT22;12272;52.426;17.100;2022-10-31T14:55:52;18.80;99.90
24091;DHT22;12272;52.426;17.100;2022-10-31T15:00:56;18.90;99.90
24091;DHT22;12272;52.426;17.100;2022-10-31T15:06:03;18.80;99.90
24091;DHT22;12272;52.426;17.100;2022-10-31T15:11:13;18.90;99.90
24091;DHT22;12272;52.426;17.100;2022-10-31T15:16:30;18.80;99.90
24091;DHT22;12272;52.426;17.100;2022-10-31T15:21:44;18.50;99.90
24091;DHT22;12272;52.426;17.100;2022-10-31T15:26:51;18.70;99.90
24091;DHT22;12272;52.426;17.100;2022-10-31T15:31:56;18.20;99.90
24091;DHT22;12272;52.426;17.100;2022-10-31T15:36:59;18.30;99.90
24091;DHT22;12272;52.426;17.100;2022-10-31T15:42:02;18.50;99.90
24091;DHT22;12272;52.426;17.100;2022-10-31T15:47:16;18.20;99.90
24091;DHT22;12272;52.426;17.100;2022-10-31T15:52:31;18.70;99.90
24091;DHT22;12272;52.426;17.100;2022-10-31T15:57:41;18.50;99.90
24091;DHT22;12272;52.426;17.100;2022-10-31T16:02:44;17.70;99.90
24091;DHT22;12272;52.426;17.100;2022-10-31T16:07:51;17.80;99.90
24091;DHT22;12272;52.426;17.100;2022-10-31T16:12:54;18.10;99.90
24091;DHT22;12272;52.426;17.100;2022-10-31T16:17:56;18.00;99.90
24091;DHT22;12272;52.426;17.100;2022-10-31T16:23:02;17.90;99.90
24091;DHT22;12272;52.426;17.100;2022-10-31T16:28:23;17.60;99.90
24091;DHT22;12272;52.426;17.100;2022-10-31T16:33:34;17.80;99.90
24091;DHT22;12272;52.426;17.100;2022-10-31T16:38:39;17.90;99.90
24091;DHT22;12272;52.426;17.100;2022-10-31T16:43:42;17.90;99.90
24091;DHT22;12272;52.426;17.100;2022-10-31T16:48:51;17.70;99.90
24091;DHT22;12272;52.426;17.100;2022-10-31T16:53:54;18.20;99.90
24091;DHT22;12272;52.426;17.100;2022-10-31T16:59:01;17.80;99.90
24091;DHT22;12272;52.426;17.100;2022-10-31T17:04:04;18.00;99.90
24091;DHT22;12272;52.426;17.100;2022-10-31T17:09:06;18.30;99.90
24091;DHT22;12272;52.426;17.100;2022-10-31T17:14:09;18.30;99.90
24091;DHT22;12272;52.426;17.100;2022-10-31T17:19:12;18.20;99.90
24091;DHT22;12272;52.426;17.100;2022-10-31T17:24:15;18.60;99.90
24091;DHT22;12272;52.426;17.100;2022-10-31T17:29:17;18.80;99.90
24091;DHT22;12272;52.426;17.100;2022-10-31T17:34:20;18.80;99.90
24091;DHT22;12272;52.426;17.100;2022-10-31T17:39:22;18.50;99.90
24091;DHT22;12272;52.426;17.100;2022-10-31T17:44:25;18.40;99.90
24091;DHT22;12272;52.426;17.100;2022-10-31T17:49:27;18.00;99.90
24091;DHT22;12272;52.426;17.100;2022-10-31T17:54:30;18.10;99.90
24091;DHT22;12272;52.426;17.100;2022-10-31T17:59:33;15.80;99.90
24091;DHT22;12272;52.426;17.100;2022-10-31T18:04:36;17.30;99.90
24091;DHT22;12272;52.426;17.100;2022-10-31T18:09:38;18.10;99.90
24091;DHT22;12272;52.426;17.100;2022-10-31T18:14:41;18.30;99.90
24091;DHT22;12272;52.426;17.100;2022-10-31T18:19:49;18.40;99.90
24091;DHT22;12272;52.426;17.100;2022-10-31T18:24:52;18.20;99.90
24091;DHT22;12272;52.426;17.100;2022-10-31T18:29:56;18.40;99.90
24091;DHT22;12272;52.426;17.100;2022-10-31T18:34:58;18.60;99.90
24091;DHT22;12272;52.426;17.100;2022-10-31T18:40:01;19.00;99.90
24091;DHT22;12272;52.426;17.100;2022-10-31T18:45:05;18.90;99.90
24091;DHT22;12272;52.426;17.100;2022-10-31T18:50:27;18.50;99.90
24091;DHT22;12272;52.426;17.100;2022-10-31T18:55:30;18.80;99.90
24091;DHT22;12272;52.426;17.100;2022-10-31T19:00:32;18.90;99.90
24091;DHT22;12272;52.426;17.100;2022-10-31T19:05:35;18.90;99.90
24091;DHT22;12272;52.426;17.100;2022-10-31T19:10:38;18.70;99.90
24091;DHT22;12272;52.426;17.100;2022-10-31T19:15:41;19.00;99.90
24091;DHT22;12272;52.426;17.100;2022-10-31T19:20:43;19.00;99.90
24091;DHT22;12272;52.426;17.100;2022-10-31T19:25:46;18.70;99.90
24091;DHT22;12272;52.426;17.100;2022-10-31T19:30:53;18.50;99.90
24091;DHT22;12272;52.426;17.100;2022-10-31T19:35:59;18.80;99.90
24091;DHT22;12272;52.426;17.100;2022-10-31T19:41:08;18.50;99.90
24091;DHT22;12272;52.426;17.100;2022-10-31T19:46:13;18.30;99.90
24091;DHT22;12272;52.426;17.100;2022-10-31T19:51:29;17.40;99.90
24091;DHT22;12272;52.426;17.100;2022-10-31T19:56:31;17.80;99.90
24091;DHT22;12272;52.426;17.100;2022-10-31T20:01:34;17.60;99.90
24091;DHT22;12272;52.426;17.100;2022-10-31T20:06:38;18.00;99.90
24091;DHT22;12272;52.426;17.100;2022-10-31T20:11:44;18.00;99.90
24091;DHT22;12272;52.426;17.100;2022-10-31T20:16:46;17.40;99.90
24091;DHT22;12272;52.426;17.100;2022-10-31T20:21:49;18.00;99.90
24091;DHT22;12272;52.426;17.100;2022-10-31T20:26:51;18.10;99.90
24091;DHT22;12272;52.426;17.100;2022-10-31T20:31:54;18.30;99.90
24091;DHT22;12272;52.426;17.100;2022-10-31T20:36:58;17.90;99.90
24091;DHT22;12272;52.426;17.100;2022-10-31T20:47:03;12.30;99.90
24091;DHT22;12272;52.426;17.100;2022-10-31T20:52:07;11.70;99.90
24091;DHT22;12272;52.426;17.100;2022-10-31T20:57:10;11.50;99.90
24091;DHT22;12272;52.426;17.100;2022-10-31T21:02:12;11.40;99.90
24091;DHT22;12272;52.426;17.100;2022-10-31T21:07:15;11.20;99.90
24091;DHT22;12272;52.426;17.100;2022-10-31T21:12:18;11.20;99.90
24091;DHT22;12272;52.426;17.100;2022-10-31T21:17:20;11.20;99.90
24091;DHT22;12272;52.426;17.100;2022-10-31T21:22:23;11.20;99.90
24091;DHT22;12272;52.426;17.100;2022-10-31T21:27:25;14.10;99.90
24091;DHT22;12272;52.426;17.100;2022-10-31T21:32:28;14.80;99.90
24091;DHT22;12272;52.426;17.100;2022-10-31T21:37:30;14.80;99.90
24091;DHT22;12272;52.426;17.100;2022-10-31T21:42:33;15.80;99.90
24091;DHT22;12272;52.426;17.100;2022-10-31T21:47:35;16.70;99.90
24091;DHT22;12272;52.426;17.100;2022-10-31T21:52:38;16.00;99.90
24091;DHT22;12272;52.426;17.100;2022-10-31T21:57:40;16.00;99.90
24091;DHT22;12272;52.426;17.100;2022-10-31T22:02:43;16.10;99.90
24091;DHT22;12272;52.426;17.100;2022-10-31T22:07:45;16.00;99.90
24091;DHT22;12272;52.426;17.100;2022-10-31T22:12:47;16.10;99.90
24091;DHT22;12272;52.426;17.100;2022-10-31T22:17:50;16.40;99.90
24091;DHT22;12272;52.426;17.100;2022-10-31T22:22:52;16.30;99.90
24091;DHT22;12272;52.426;17.100;2022-10-31T22:27:55;15.90;99.90
24091;DHT22;12272;52.426;17.100;2022-10-31T22:32:58;15.50;99.90
24091;DHT22;12272;52.426;17.100;2022-10-31T22:38:00;15.50;99.90
24091;DHT22;12272;52.426;17.100;2022-10-31T22:43:03;15.40;99.90
24091;DHT22;12272;52.426;17.100;2022-10-31T22:48:05;15.40;99.90
24091;DHT22;12272;52.426;17.100;2022-10-31T22:53:08;16.00;99.90
24091;DHT22;12272;52.426;17.100;2022-10-31T22:58:12;16.40;99.90
24091;DHT22;12272;52.426;17.100;2022-10-31T23:03:15;16.10;99.90
24091;DHT22;12272;52.426;17.100;2022-10-31T23:08:20;15.90;99.90
24091;DHT22;12272;52.426;17.100;2022-10-31T23:13:22;15.60;99.90
24091;DHT22;12272;52.426;17.100;2022-10-31T23:18:44;15.70;99.90
24091;DHT22;12272;52.426;17.100;2022-10-31T23:23:51;16.70;99.90
24091;DHT22;12272;52.426;17.100;2022-10-31T23:28:54;16.90;99.90
24091;DHT22;12272;52.426;17.100;2022-10-31T23:33:56;16.60;99.90
24091;DHT22;12272;52.426;17.100;2022-10-31T23:38:58;17.00;99.90
24091;DHT22;12272;52.426;17.100;2022-10-31T23:44:01;16.90;99.90
24091;DHT22;12272;52.426;17.100;2022-10-31T23:49:04;14.00;99.90
24091;DHT22;12272;52.426;17.100;2022-10-31T23:54:06;12.90;99.90
24091;DHT22;12272;52.426;17.100;2022-10-31T23:59:09;15.30;99.90
